Time;durP1;ratioP1;P1;durP2;ratioP2;P2;SDS_P1;SDS_P2;PMS_P1;PMS_P2;Temp;Humidity;BMP_temperature;BMP_pressure;BME280_temperature;BME280_humidity;BME280_pressure;Samples;Min_cycle;Max_cycle;Signal;HPM_P1;HPM_P2
2022/07/30 00:02:21;;;;;;;14.43;10.02;;;;;;;;;;5061707;28;20024;-83
2022/07/30 00:04:47;;;;;;;11.13;9.50;;;;;;;;;;5064589;28;20059;-85
2022/07/30 00:07:13;;;;;;;11.35;9.13;;;;;;;;;;5047334;28;20025;-85
2022/07/30 00:09:39;;;;;;;10.82;8.27;;;;;;;;;;5071716;28;20235;-85
2022/07/30 00:12:08;;;;;;;13.00;8.65;;;;;;;;;;5074304;28;20025;-85
2022/07/30 00:14:34;;;;;;;10.93;7.68;;;;;;;;;;5049944;28;20021;-85
2022/07/30 00:17:01;;;;;;;9.98;7.40;;;;;;;;;;5067984;28;20025;-85
2022/07/30 00:19:27;;;;;;;10.13;7.78;;;;;;;;;;5064114;28;20035;-84
2022/07/30 00:21:53;;;;;;;9.15;7.43;;;;;;;;;;5050040;28;20052;-84
2022/07/30 00:24:20;;;;;;;11.25;6.55;;;;;;;;;;5067845;28;20029;-84
2022/07/30 00:26:46;;;;;;;7.88;5.50;;;;;;;;;;5068542;28;20060;-84
2022/07/30 00:29:12;;;;;;;9.23;5.40;;;;;;;;;;5065085;28;20087;-85
2022/07/30 00:31:38;;;;;;;8.15;5.20;;;;;;;;;;5048931;28;20051;-84
2022/07/30 00:34:05;;;;;;;6.43;4.75;;;;;;;;;;5067593;28;20020;-84
2022/07/30 00:36:31;;;;;;;7.85;5.32;;;;;;;;;;5067135;28;20555;-85
2022/07/30 00:38:57;;;;;;;6.70;4.47;;;;;;;;;;5067331;28;20013;-84
2022/07/30 00:41:23;;;;;;;6.00;4.07;;;;;;;;;;5067785;28;20040;-85
2022/07/30 00:43:49;;;;;;;6.35;4.05;;;;;;;;;;5066134;28;20036;-85
2022/07/30 00:46:15;;;;;;;5.55;3.80;;;;;;;;;;5046421;28;20029;-85
2022/07/30 00:48:41;;;;;;;5.82;3.70;;;;;;;;;;5070905;28;20032;-84
2022/07/30 00:51:07;;;;;;;5.82;4.05;;;;;;;;;;5065467;28;20108;-84
2022/07/30 00:53:34;;;;;;;5.70;3.65;;;;;;;;;;5061497;28;20056;-85
2022/07/30 00:56:00;;;;;;;6.30;3.67;;;;;;;;;;5045444;28;20024;-84
2022/07/30 00:58:26;;;;;;;5.50;3.53;;;;;;;;;;5079418;28;20028;-85
2022/07/30 01:00:52;;;;;;;6.20;3.60;;;;;;;;;;5077385;28;20013;-85
2022/07/30 01:03:19;;;;;;;4.85;2.95;;;;;;;;;;5045255;28;20036;-84
2022/07/30 01:05:45;;;;;;;4.65;2.85;;;;;;;;;;5074484;28;20029;-82
2022/07/30 01:08:11;;;;;;;5.03;2.78;;;;;;;;;;5064256;28;20100;-84
2022/07/30 01:10:37;;;;;;;4.80;2.72;;;;;;;;;;5044653;28;20097;-84
2022/07/30 01:13:03;;;;;;;4.88;2.97;;;;;;;;;;5070705;28;20111;-85
2022/07/30 01:15:29;;;;;;;5.28;2.85;;;;;;;;;;5046127;28;20102;-84
2022/07/30 01:17:57;;;;;;;5.78;2.55;;;;;;;;;;5062273;28;20043;-85
2022/07/30 01:20:29;;;;;;;4.20;2.42;;;;;;;;;;5066624;28;20025;-85
2022/07/30 01:23:01;;;;;;;4.10;2.03;;;;;;;;;;5046342;28;20491;-85
2022/07/30 01:25:27;;;;;;;4.95;2.50;;;;;;;;;;5063045;28;20040;-84
2022/07/30 01:27:58;;;;;;;4.97;2.40;;;;;;;;;;5068304;28;20101;-84
2022/07/30 01:30:25;;;;;;;4.45;2.65;;;;;;;;;;5063539;28;20108;-84
2022/07/30 01:32:52;;;;;;;5.80;2.38;;;;;;;;;;5061560;28;20025;-84
2022/07/30 01:35:19;;;;;;;4.97;2.70;;;;;;;;;;5045244;28;20056;-84
2022/07/30 01:37:46;;;;;;;4.40;2.45;;;;;;;;;;5059982;28;20028;-84
2022/07/30 01:40:13;;;;;;;5.10;2.75;;;;;;;;;;5041127;28;20054;-84
2022/07/30 01:42:40;;;;;;;5.30;2.55;;;;;;;;;;5042274;28;20100;-83
2022/07/30 01:45:07;;;;;;;4.85;2.83;;;;;;;;;;5066802;28;20032;-83
2022/07/30 01:47:34;;;;;;;4.50;2.67;;;;;;;;;;5060689;28;20028;-84
2022/07/30 01:50:01;;;;;;;4.22;2.50;;;;;;;;;;5059617;28;20037;-84
2022/07/30 01:52:29;;;;;;;4.75;2.67;;;;;;;;;;5064376;28;20029;-84
2022/07/30 01:54:56;;;;;;;5.65;2.72;;;;;;;;;;5048717;28;20547;-84
2022/07/30 01:57:22;;;;;;;107.22;50.13;;;;;;;;;;5060794;28;20096;-83
2022/07/30 01:59:51;;;;;;;4.30;2.60;;;;;;;;;;5061125;28;20507;-85
2022/07/30 02:02:17;;;;;;;4.28;2.22;;;;;;;;;;5046205;28;20654;-84
2022/07/30 02:04:43;;;;;;;4.05;2.40;;;;;;;;;;5063359;28;20065;-84
2022/07/30 02:07:17;;;;;;;4.00;2.10;;;;;;;;;;5051883;28;20051;-85
2022/07/30 02:10:06;;;;;;;4.68;2.50;;;;;;;;;;5073052;28;20050;-85
2022/07/30 02:12:33;;;;;;;4.88;2.30;;;;;;;;;;5069801;28;20092;-84
2022/07/30 02:15:08;;;;;;;4.95;2.58;;;;;;;;;;5061543;28;20478;-85
2022/07/30 02:17:49;;;;;;;4.75;2.53;;;;;;;;;;5045504;28;20017;-84
2022/07/30 02:20:16;;;;;;;4.35;2.15;;;;;;;;;;5079424;28;20029;-85
2022/07/30 02:22:43;;;;;;;5.55;2.60;;;;;;;;;;5070127;28;20037;-84
2022/07/30 02:25:13;;;;;;;5.40;2.35;;;;;;;;;;5062284;28;20059;-85
2022/07/30 02:27:40;;;;;;;4.85;2.33;;;;;;;;;;5041491;28;20079;-85
2022/07/30 02:30:07;;;;;;;3.97;1.98;;;;;;;;;;5061302;28;20033;-85
2022/07/30 02:32:35;;;;;;;4.47;2.65;;;;;;;;;;5034192;28;20032;-84
2022/07/30 02:35:09;;;;;;;5.15;2.42;;;;;;;;;;5046554;28;20032;-85
2022/07/30 02:37:36;;;;;;;4.93;2.50;;;;;;;;;;5065523;28;20029;-85
2022/07/30 02:40:02;;;;;;;5.57;2.53;;;;;;;;;;5083129;28;20031;-85
2022/07/30 02:42:28;;;;;;;4.70;2.70;;;;;;;;;;5062521;28;20047;-85
2022/07/30 02:44:56;;;;;;;4.80;2.40;;;;;;;;;;5045030;28;20055;-85
2022/07/30 02:47:23;;;;;;;6.18;2.70;;;;;;;;;;5060743;28;20068;-84
2022/07/30 02:49:49;;;;;;;5.05;3.08;;;;;;;;;;5061476;28;20035;-86
2022/07/30 02:52:16;;;;;;;5.13;3.08;;;;;;;;;;5083661;28;20051;-85
2022/07/30 02:54:42;;;;;;;5.53;3.20;;;;;;;;;;5046206;28;20510;-84
2022/07/30 02:57:10;;;;;;;5.50;3.13;;;;;;;;;;5063275;28;20021;-84
2022/07/30 02:59:37;;;;;;;5.65;3.03;;;;;;;;;;5062347;28;20095;-84
2022/07/30 03:02:04;;;;;;;6.30;3.10;;;;;;;;;;5060472;28;20089;-85
2022/07/30 03:04:31;;;;;;;6.03;3.47;;;;;;;;;;5050256;28;20033;-84
2022/07/30 03:06:58;;;;;;;5.75;3.22;;;;;;;;;;5058563;28;20597;-85
2022/07/30 03:09:24;;;;;;;5.32;3.50;;;;;;;;;;5056325;28;20048;-85
2022/07/30 03:11:51;;;;;;;6.85;3.75;;;;;;;;;;5080865;28;20020;-85
2022/07/30 03:14:17;;;;;;;5.53;3.70;;;;;;;;;;5082182;28;20031;-84
2022/07/30 03:16:46;;;;;;;7.07;3.70;;;;;;;;;;5079080;28;20020;-85
2022/07/30 03:19:13;;;;;;;6.72;4.20;;;;;;;;;;5048347;28;20032;-84
2022/07/30 03:21:40;;;;;;;6.43;3.80;;;;;;;;;;5043064;28;20089;-85
2022/07/30 03:24:08;;;;;;;5.80;3.70;;;;;;;;;;5043689;28;20028;-85
2022/07/30 03:26:36;;;;;;;6.03;4.10;;;;;;;;;;5043157;28;20029;-85
2022/07/30 03:29:02;;;;;;;6.60;4.20;;;;;;;;;;5061887;28;20052;-84
2022/07/30 03:31:29;;;;;;;6.00;3.95;;;;;;;;;;5058361;28;20037;-83
2022/07/30 03:33:56;;;;;;;5.75;3.88;;;;;;;;;;5039081;28;20021;-83
2022/07/30 03:36:22;;;;;;;7.50;4.15;;;;;;;;;;5036787;28;20483;-84
2022/07/30 03:38:49;;;;;;;7.75;4.38;;;;;;;;;;5034039;28;20037;-84
2022/07/30 03:41:15;;;;;;;6.35;3.95;;;;;;;;;;5040350;28;20422;-84
2022/07/30 03:43:41;;;;;;;34.00;7.00;;;;;;;;;;5055811;28;20029;-83
2022/07/30 03:46:09;;;;;;;6.63;4.28;;;;;;;;;;5055967;28;20036;-83
2022/07/30 03:48:36;;;;;;;6.60;4.57;;;;;;;;;;5065223;28;20029;-83
2022/07/30 03:51:05;;;;;;;6.72;4.65;;;;;;;;;;5075238;28;20044;-83
2022/07/30 03:53:31;;;;;;;6.45;4.60;;;;;;;;;;5058747;28;20021;-82
2022/07/30 03:55:57;;;;;;;6.75;4.80;;;;;;;;;;5056099;28;20036;-84
2022/07/30 03:58:23;;;;;;;7.20;4.68;;;;;;;;;;5053548;28;20375;-83
2022/07/30 04:00:50;;;;;;;7.10;4.53;;;;;;;;;;5048805;28;20049;-83
2022/07/30 04:03:34;;;;;;;7.97;4.47;;;;;;;;;;5047538;28;20029;-83
2022/07/30 04:06:01;;;;;;;6.80;4.32;;;;;;;;;;5036063;28;20028;-83
2022/07/30 04:08:28;;;;;;;6.03;4.30;;;;;;;;;;5042533;28;20035;-82
2022/07/30 04:10:54;;;;;;;7.53;5.07;;;;;;;;;;5053078;28;20020;-83
2022/07/30 04:13:20;;;;;;;8.77;4.70;;;;;;;;;;5079282;28;20020;-82
2022/07/30 04:15:58;;;;;;;7.18;4.70;;;;;;;;;;5058080;28;20021;-82
2022/07/30 04:18:26;;;;;;;6.65;4.60;;;;;;;;;;5038492;28;20029;-84
2022/07/30 04:20:53;;;;;;;6.55;4.32;;;;;;;;;;5060470;28;20021;-83
2022/07/30 04:23:19;;;;;;;6.40;4.40;;;;;;;;;;5061879;28;20017;-83
2022/07/30 04:25:45;;;;;;;7.28;4.70;;;;;;;;;;5070220;28;20394;-83
2022/07/30 04:28:12;;;;;;;7.80;4.40;;;;;;;;;;5062032;28;20041;-84
2022/07/30 04:30:38;;;;;;;5.97;4.13;;;;;;;;;;5063009;28;20036;-83
2022/07/30 04:33:04;;;;;;;6.63;3.97;;;;;;;;;;5065204;28;20031;-83
2022/07/30 04:35:31;;;;;;;6.10;4.43;;;;;;;;;;5062426;28;20025;-84
2022/07/30 04:37:57;;;;;;;7.13;4.63;;;;;;;;;;5043464;28;20023;-83
2022/07/30 04:40:23;;;;;;;6.30;4.43;;;;;;;;;;5056566;28;20479;-83
2022/07/30 04:42:49;;;;;;;6.65;4.70;;;;;;;;;;5062598;28;20032;-84
2022/07/30 04:45:15;;;;;;;7.88;4.63;;;;;;;;;;5062077;28;20032;-84
2022/07/30 04:47:41;;;;;;;6.40;4.60;;;;;;;;;;5060559;28;20052;-84
2022/07/30 04:50:08;;;;;;;7.15;4.68;;;;;;;;;;5061524;28;20025;-83
2022/07/30 04:52:35;;;;;;;6.90;4.88;;;;;;;;;;5062537;28;20021;-84
2022/07/30 04:55:06;;;;;;;7.18;4.88;;;;;;;;;;5059346;28;20487;-82
2022/07/30 04:57:33;;;;;;;6.78;4.68;;;;;;;;;;5051358;28;20119;-83
2022/07/30 04:59:59;;;;;;;7.13;5.38;;;;;;;;;;5058886;28;20025;-83
2022/07/30 05:02:26;;;;;;;8.23;5.10;;;;;;;;;;5044171;28;20032;-83
2022/07/30 05:04:53;;;;;;;6.82;5.20;;;;;;;;;;5060051;28;20029;-83
2022/07/30 05:07:20;;;;;;;8.00;5.00;;;;;;;;;;5048847;28;20025;-82
2022/07/30 05:09:46;;;;;;;7.80;5.35;;;;;;;;;;5042324;28;20024;-81
2022/07/30 05:12:12;;;;;;;6.80;5.05;;;;;;;;;;5062054;28;20032;-81
2022/07/30 05:14:39;;;;;;;6.70;4.70;;;;;;;;;;5046665;28;20422;-84
2022/07/30 05:17:05;;;;;;;7.30;4.82;;;;;;;;;;5063414;28;20029;-84
2022/07/30 05:19:31;;;;;;;7.30;4.65;;;;;;;;;;5064847;28;20047;-83
2022/07/30 05:21:57;;;;;;;7.07;5.25;;;;;;;;;;5062914;28;20558;-83
2022/07/30 05:24:23;;;;;;;6.97;5.10;;;;;;;;;;5064652;28;20035;-84
2022/07/30 05:26:49;;;;;;;7.88;5.45;;;;;;;;;;5056402;28;20025;-83
2022/07/30 05:29:15;;;;;;;6.75;4.93;;;;;;;;;;5062114;28;20056;-82
2022/07/30 05:31:41;;;;;;;7.75;5.10;;;;;;;;;;5043601;28;20029;-83
2022/07/30 05:34:07;;;;;;;8.77;5.40;;;;;;;;;;5063269;28;20071;-83
2022/07/30 05:36:33;;;;;;;7.65;5.53;;;;;;;;;;5063233;28;20052;-84
2022/07/30 05:38:59;;;;;;;8.07;5.10;;;;;;;;;;5063309;28;20040;-83
2022/07/30 05:41:29;;;;;;;8.38;5.60;;;;;;;;;;5059672;28;20029;-84
2022/07/30 05:43:55;;;;;;;7.10;5.85;;;;;;;;;;5069048;28;20111;-84
2022/07/30 05:46:22;;;;;;;6.90;4.80;;;;;;;;;;5063071;28;20151;-83
2022/07/30 05:48:48;;;;;;;7.63;5.43;;;;;;;;;;5044306;28;20049;-83
2022/07/30 05:51:14;;;;;;;8.07;5.35;;;;;;;;;;5062677;28;20368;-84
2022/07/30 05:53:40;;;;;;;6.68;4.75;;;;;;;;;;5066435;28;20033;-84
2022/07/30 05:56:06;;;;;;;6.72;5.00;;;;;;;;;;5045313;28;20027;-83
2022/07/30 05:58:34;;;;;;;6.57;4.53;;;;;;;;;;5057420;28;20278;-84
2022/07/30 06:01:00;;;;;;;6.57;4.75;;;;;;;;;;5080543;28;20035;-84
2022/07/30 06:03:26;;;;;;;6.20;4.13;;;;;;;;;;5072386;28;20032;-83
2022/07/30 06:05:52;;;;;;;6.32;4.60;;;;;;;;;;5060494;28;20029;-84
2022/07/30 06:08:18;;;;;;;7.15;4.75;;;;;;;;;;5043397;28;20028;-83
2022/07/30 06:10:44;;;;;;;6.57;4.63;;;;;;;;;;5063323;28;20037;-84
2022/07/30 06:13:10;;;;;;;6.53;4.45;;;;;;;;;;5057416;28;20021;-83
2022/07/30 06:15:37;;;;;;;6.88;4.68;;;;;;;;;;5061374;28;20064;-84
2022/07/30 06:18:03;;;;;;;6.20;4.32;;;;;;;;;;5047704;28;20021;-84
2022/07/30 06:20:29;;;;;;;7.68;4.90;;;;;;;;;;5065352;28;20092;-84
2022/07/30 06:22:55;;;;;;;7.35;4.65;;;;;;;;;;5067601;28;20028;-84
2022/07/30 06:25:21;;;;;;;6.75;4.53;;;;;;;;;;5069467;28;20025;-85
2022/07/30 06:27:47;;;;;;;5.82;4.30;;;;;;;;;;5040942;28;20040;-84
2022/07/30 06:30:13;;;;;;;7.05;4.30;;;;;;;;;;5040988;28;20033;-84
2022/07/30 06:32:39;;;;;;;7.05;4.57;;;;;;;;;;5043487;28;20016;-85
2022/07/30 06:35:07;;;;;;;6.13;4.95;;;;;;;;;;5077513;28;20032;-85
2022/07/30 06:37:33;;;;;;;7.22;4.38;;;;;;;;;;5074638;28;20013;-85
2022/07/30 06:39:59;;;;;;;6.72;4.93;;;;;;;;;;5039022;28;20134;-84
2022/07/30 06:42:25;;;;;;;6.65;4.22;;;;;;;;;;5062808;28;20031;-85
2022/07/30 06:44:51;;;;;;;6.63;4.40;;;;;;;;;;5045890;28;20049;-84
2022/07/30 06:47:25;;;;;;;6.82;4.57;;;;;;;;;;5042140;28;20029;-84
2022/07/30 06:49:52;;;;;;;7.07;4.32;;;;;;;;;;5059884;28;20067;-84
2022/07/30 06:52:18;;;;;;;6.22;3.97;;;;;;;;;;5060851;28;20031;-84
2022/07/30 06:54:45;;;;;;;6.20;3.90;;;;;;;;;;5044344;28;20032;-84
2022/07/30 06:57:11;;;;;;;6.43;4.47;;;;;;;;;;5059870;28;20021;-84
2022/07/30 06:59:37;;;;;;;6.72;4.35;;;;;;;;;;5028979;28;20223;-85
2022/07/30 07:02:03;;;;;;;6.22;4.15;;;;;;;;;;5054587;28;20482;-84
2022/07/30 07:04:31;;;;;;;5.97;4.45;;;;;;;;;;5038792;28;20186;-84
2022/07/30 07:06:57;;;;;;;6.20;3.78;;;;;;;;;;5042158;28;20025;-82
2022/07/30 07:09:23;;;;;;;5.72;3.85;;;;;;;;;;5032328;28;20041;-84
2022/07/30 07:11:49;;;;;;;6.70;4.45;;;;;;;;;;5065678;28;20031;-84
2022/07/30 07:14:15;;;;;;;6.35;4.28;;;;;;;;;;5064444;28;20020;-85
2022/07/30 07:16:41;;;;;;;5.95;3.90;;;;;;;;;;5066292;28;20031;-84
2022/07/30 07:19:07;;;;;;;6.10;4.03;;;;;;;;;;5062262;28;20040;-83
2022/07/30 07:21:33;;;;;;;6.53;4.00;;;;;;;;;;5056019;28;20033;-84
2022/07/30 07:24:02;;;;;;;6.22;3.63;;;;;;;;;;5062564;28;20085;-84
2022/07/30 07:26:28;;;;;;;6.45;4.32;;;;;;;;;;5038691;28;20036;-83
2022/07/30 07:28:54;;;;;;;6.38;4.07;;;;;;;;;;5058508;28;20048;-84
2022/07/30 07:31:21;;;;;;;6.70;4.30;;;;;;;;;;5041251;28;20024;-84
2022/07/30 07:33:47;;;;;;;7.63;4.32;;;;;;;;;;5047476;28;20018;-84
2022/07/30 07:36:14;;;;;;;7.15;3.83;;;;;;;;;;5038119;28;20032;-85
2022/07/30 07:38:40;;;;;;;5.15;3.55;;;;;;;;;;5035688;28;20033;-85
2022/07/30 07:41:06;;;;;;;6.07;4.75;;;;;;;;;;5036430;28;20057;-84
2022/07/30 07:43:32;;;;;;;5.45;3.88;;;;;;;;;;5063436;28;20028;-85
2022/07/30 07:45:58;;;;;;;5.90;3.97;;;;;;;;;;5044362;28;20028;-85
2022/07/30 07:48:24;;;;;;;5.60;3.80;;;;;;;;;;5051292;28;20391;-84
2022/07/30 07:50:50;;;;;;;5.82;4.07;;;;;;;;;;5054299;28;20023;-84
2022/07/30 07:53:16;;;;;;;5.93;4.10;;;;;;;;;;5049740;28;20021;-85
2022/07/30 07:55:42;;;;;;;5.82;3.95;;;;;;;;;;5055817;28;20028;-85
2022/07/30 07:58:12;;;;;;;5.90;4.15;;;;;;;;;;5056364;28;20033;-84
2022/07/30 08:00:38;;;;;;;5.50;4.07;;;;;;;;;;5057527;28;20082;-84
2022/07/30 08:03:04;;;;;;;6.40;4.20;;;;;;;;;;5056354;28;20064;-84
2022/07/30 08:05:31;;;;;;;5.70;3.95;;;;;;;;;;5047369;28;20039;-85
2022/07/30 08:07:57;;;;;;;5.72;4.22;;;;;;;;;;5056131;28;20609;-84
2022/07/30 08:10:23;;;;;;;5.40;3.70;;;;;;;;;;5055457;28;20472;-84
2022/07/30 08:12:49;;;;;;;6.25;4.10;;;;;;;;;;5034332;28;20475;-85
2022/07/30 08:15:15;;;;;;;6.50;4.80;;;;;;;;;;5038416;28;20766;-85
2022/07/30 08:17:42;;;;;;;5.82;4.00;;;;;;;;;;5055647;28;20545;-86
2022/07/30 08:20:09;;;;;;;5.70;4.18;;;;;;;;;;5043357;28;20487;-85
2022/07/30 08:22:35;;;;;;;5.97;4.07;;;;;;;;;;5056356;28;20033;-86
2022/07/30 08:25:01;;;;;;;6.47;4.68;;;;;;;;;;5057691;28;20029;-85
2022/07/30 08:27:27;;;;;;;5.90;4.40;;;;;;;;;;5036134;28;20028;-87
2022/07/30 08:29:53;;;;;;;6.35;4.75;;;;;;;;;;5066605;28;20430;-85
2022/07/30 08:32:19;;;;;;;7.57;4.82;;;;;;;;;;5042247;28;20115;-86
2022/07/30 08:34:46;;;;;;;6.97;5.10;;;;;;;;;;5038035;28;20095;-85
2022/07/30 08:37:12;;;;;;;6.38;4.60;;;;;;;;;;5053598;28;20481;-86
2022/07/30 08:39:39;;;;;;;6.38;4.65;;;;;;;;;;5035862;28;20025;-85
2022/07/30 08:42:05;;;;;;;6.43;4.90;;;;;;;;;;5036739;28;20052;-85
2022/07/30 08:44:32;;;;;;;6.35;4.15;;;;;;;;;;5055872;28;20025;-85
2022/07/30 08:46:59;;;;;;;6.82;4.95;;;;;;;;;;5043046;28;20021;-85
2022/07/30 08:49:25;;;;;;;6.25;4.75;;;;;;;;;;5038040;28;20155;-87
2022/07/30 08:51:52;;;;;;;6.45;5.00;;;;;;;;;;5036601;28;20367;-87
2022/07/30 08:54:18;;;;;;;7.70;5.18;;;;;;;;;;5040475;28;20060;-85
2022/07/30 08:56:46;;;;;;;6.03;4.60;;;;;;;;;;5044839;28;20101;-84
2022/07/30 08:59:12;;;;;;;7.88;4.93;;;;;;;;;;5062510;28;20025;-84
2022/07/30 09:01:38;;;;;;;6.80;5.10;;;;;;;;;;5053931;28;20029;-84
2022/07/30 09:04:04;;;;;;;7.22;4.68;;;;;;;;;;5032142;28;20115;-84
2022/07/30 09:06:30;;;;;;;5.88;4.10;;;;;;;;;;5052742;28;20079;-84
2022/07/30 09:08:56;;;;;;;6.95;4.82;;;;;;;;;;5043958;28;20029;-84
2022/07/30 09:11:22;;;;;;;6.68;5.25;;;;;;;;;;5039188;28;20489;-84
2022/07/30 09:13:49;;;;;;;6.82;5.05;;;;;;;;;;5040795;28;20568;-84
2022/07/30 09:16:25;;;;;;;6.28;4.68;;;;;;;;;;5040463;28;20111;-83
2022/07/30 09:18:52;;;;;;;6.82;4.82;;;;;;;;;;5039470;28;20021;-84
2022/07/30 09:21:22;;;;;;;6.13;4.72;;;;;;;;;;5046593;28;20111;-84
2022/07/30 09:23:54;;;;;;;5.90;4.10;;;;;;;;;;5067377;28;20024;-84
2022/07/30 09:26:20;;;;;;;;;;;;;;;;;;5056753;28;20029;-83
2022/07/30 09:28:46;;;;;;;6.60;4.10;;;;;;;;;;5040184;28;19927;-83
2022/07/30 09:31:12;;;;;;;6.28;4.40;;;;;;;;;;5065885;28;20032;-83
2022/07/30 09:33:38;;;;;;;6.60;4.40;;;;;;;;;;5068472;28;20054;-84
2022/07/30 09:36:06;;;;;;;5.93;4.20;;;;;;;;;;5059501;28;20033;-83
2022/07/30 09:38:49;;;;;;;6.55;4.93;;;;;;;;;;5041561;28;20021;-83
2022/07/30 09:41:16;;;;;;;140.95;47.78;;;;;;;;;;5053784;28;20436;-84
2022/07/30 09:43:43;;;;;;;6.65;4.90;;;;;;;;;;5049008;28;20052;-84
2022/07/30 09:46:09;;;;;;;143.95;18.67;;;;;;;;;;5045428;28;20111;-83
2022/07/30 09:48:35;;;;;;;7.28;4.78;;;;;;;;;;5043469;28;20052;-83
2022/07/30 09:51:01;;;;;;;34.78;6.90;;;;;;;;;;5080394;28;20339;-83
2022/07/30 09:53:27;;;;;;;6.88;5.55;;;;;;;;;;5060496;28;20422;-84
2022/07/30 09:55:53;;;;;;;6.95;5.05;;;;;;;;;;5061911;28;20051;-83
2022/07/30 09:58:19;;;;;;;16.65;10.63;;;;;;;;;;5068559;28;20055;-84
2022/07/30 10:00:45;;;;;;;7.43;5.40;;;;;;;;;;5077778;28;20029;-83
2022/07/30 10:03:16;;;;;;;6.65;5.00;;;;;;;;;;5044759;28;20028;-82
2022/07/30 10:05:51;;;;;;;6.70;5.13;;;;;;;;;;5056071;28;20068;-83
2022/07/30 10:08:17;;;;;;;7.57;6.00;;;;;;;;;;5053767;28;20522;-83
2022/07/30 10:10:43;;;;;;;7.45;5.63;;;;;;;;;;5059497;28;20120;-83
2022/07/30 10:13:10;;;;;;;7.20;5.43;;;;;;;;;;5057741;28;20036;-83
2022/07/30 10:15:36;;;;;;;7.38;5.65;;;;;;;;;;5058369;28;20047;-82
2022/07/30 10:18:04;;;;;;;6.65;5.30;;;;;;;;;;5055723;28;20507;-83
2022/07/30 10:20:30;;;;;;;8.45;5.88;;;;;;;;;;5052087;28;20035;-82
2022/07/30 10:22:56;;;;;;;8.27;5.80;;;;;;;;;;5053115;28;20024;-83
2022/07/30 10:25:24;;;;;;;7.30;6.05;;;;;;;;;;5056891;28;20040;-83
2022/07/30 10:27:51;;;;;;;7.68;5.28;;;;;;;;;;5038670;28;20108;-83
2022/07/30 10:30:18;;;;;;;7.65;5.75;;;;;;;;;;5055369;28;20017;-83
2022/07/30 10:32:44;;;;;;;7.13;5.50;;;;;;;;;;5037514;28;20029;-84
2022/07/30 10:35:11;;;;;;;8.23;5.28;;;;;;;;;;5058632;28;20029;-84
2022/07/30 10:37:38;;;;;;;7.32;5.40;;;;;;;;;;5039746;28;20115;-83
2022/07/30 10:40:16;;;;;;;6.82;5.40;;;;;;;;;;5054282;28;20039;-83
2022/07/30 10:42:43;;;;;;;6.93;4.90;;;;;;;;;;5050640;28;20502;-83
2022/07/30 10:45:09;;;;;;;8.00;5.07;;;;;;;;;;5054807;28;20080;-83
2022/07/30 10:47:37;;;;;;;7.85;5.20;;;;;;;;;;5055834;28;20036;-83
2022/07/30 10:50:13;;;;;;;7.15;4.82;;;;;;;;;;5043772;28;20025;-79
2022/07/30 10:52:56;;;;;;;6.53;4.65;;;;;;;;;;5055348;28;20025;-83
2022/07/30 10:55:22;;;;;;;;;;;;;;;;;;5047089;28;20117;-83
2022/07/30 10:57:58;;;;;;;7.50;5.45;;;;;;;;;;5055513;28;19909;-82
2022/07/30 11:00:24;;;;;;;7.38;5.60;;;;;;;;;;5037519;28;20135;-83
2022/07/30 11:03:09;;;;;;;7.38;5.65;;;;;;;;;;5055880;28;20479;-83
2022/07/30 11:05:35;;;;;;;7.18;5.45;;;;;;;;;;5038601;28;20055;-80
2022/07/30 11:08:30;;;;;;;7.13;5.13;;;;;;;;;;5041665;28;20021;-83
2022/07/30 11:10:56;;;;;;;7.55;5.95;;;;;;;;;;5040266;28;20045;-81
2022/07/30 11:13:45;;;;;;;7.93;6.03;;;;;;;;;;5059725;28;20387;-83
2022/07/30 11:16:11;;;;;;;8.32;5.75;;;;;;;;;;5027620;28;20037;-83
2022/07/30 11:18:57;;;;;;;8.15;6.20;;;;;;;;;;5062398;28;20035;-83
2022/07/30 11:21:23;;;;;;;8.77;6.28;;;;;;;;;;5062065;28;20567;-83
2022/07/30 11:23:49;;;;;;;9.50;6.55;;;;;;;;;;5049788;28;20025;-83
2022/07/30 11:26:34;;;;;;;8.18;6.38;;;;;;;;;;5048700;28;20025;-82
2022/07/30 11:29:00;;;;;;;8.00;6.07;;;;;;;;;;5040320;28;20048;-82
2022/07/30 11:31:30;;;;;;;7.03;5.95;;;;;;;;;;5051761;28;20045;-83
2022/07/30 11:34:15;;;;;;;8.75;5.82;;;;;;;;;;5066128;28;20025;-82
2022/07/30 11:36:59;;;;;;;7.47;5.95;;;;;;;;;;5084437;28;20028;-82
2022/07/30 11:39:45;;;;;;;7.53;5.70;;;;;;;;;;5080075;28;20549;-82
2022/07/30 11:42:24;;;;;;;6.30;4.95;;;;;;;;;;5040115;28;20037;-82
2022/07/30 11:44:50;;;;;;;7.93;5.95;;;;;;;;;;5057519;28;20517;-82
2022/07/30 11:47:17;;;;;;;6.50;4.97;;;;;;;;;;5064790;28;20032;-81
2022/07/30 11:49:45;;;;;;;8.32;5.68;;;;;;;;;;5063315;28;20040;-83
2022/07/30 11:52:11;;;;;;;7.28;5.97;;;;;;;;;;5046808;28;20029;-83
2022/07/30 11:54:53;;;;;;;8.85;6.80;;;;;;;;;;5062865;28;20017;-82
2022/07/30 11:57:19;;;;;;;7.15;6.32;;;;;;;;;;5065334;28;20621;-80
2022/07/30 11:59:57;;;;;;;7.40;6.03;;;;;;;;;;5066130;28;20025;-84
2022/07/30 12:02:27;;;;;;;6.85;5.50;;;;;;;;;;5049831;28;20055;-82
2022/07/30 12:04:53;;;;;;;6.97;5.35;;;;;;;;;;5058316;28;20029;-82
2022/07/30 12:07:23;;;;;;;7.25;5.75;;;;;;;;;;5065560;28;20081;-83
2022/07/30 12:09:49;;;;;;;6.93;5.55;;;;;;;;;;5062913;28;20021;-81
2022/07/30 12:12:23;;;;;;;7.63;5.40;;;;;;;;;;5063173;28;20032;-82
2022/07/30 12:14:49;;;;;;;7.38;5.53;;;;;;;;;;5046883;28;20029;-83
2022/07/30 12:17:15;;;;;;;7.32;6.05;;;;;;;;;;5063555;28;20032;-82
2022/07/30 12:19:44;;;;;;;7.70;5.55;;;;;;;;;;5045362;28;20127;-82
2022/07/30 12:22:11;;;;;;;6.72;5.22;;;;;;;;;;5059760;28;20033;-82
2022/07/30 12:24:37;;;;;;;6.43;5.32;;;;;;;;;;5072534;28;20056;-82
2022/07/30 12:27:04;;;;;;;6.90;5.57;;;;;;;;;;5079424;28;20028;-83
2022/07/30 12:29:31;;;;;;;8.90;6.55;;;;;;;;;;5044845;28;20052;-82
2022/07/30 12:31:57;;;;;;;7.78;6.32;;;;;;;;;;5052979;28;20017;-82
2022/07/30 12:34:24;;;;;;;7.68;6.25;;;;;;;;;;5048035;28;20119;-83
2022/07/30 12:36:51;;;;;;;8.48;6.40;;;;;;;;;;5062614;28;20128;-84
2022/07/30 12:39:24;;;;;;;8.23;6.90;;;;;;;;;;5061520;28;20025;-82
2022/07/30 12:41:51;;;;;;;9.07;6.80;;;;;;;;;;5060917;28;20021;-81
2022/07/30 12:44:35;;;;;;;7.85;6.55;;;;;;;;;;5064524;28;20021;-83
2022/07/30 12:47:02;;;;;;;7.82;6.68;;;;;;;;;;5062051;28;20466;-83
2022/07/30 12:49:29;;;;;;;8.32;6.65;;;;;;;;;;5061411;28;20040;-82
2022/07/30 12:51:55;;;;;;;7.53;6.60;;;;;;;;;;5063319;28;20013;-83
2022/07/30 12:54:22;;;;;;;8.57;6.65;;;;;;;;;;5060791;28;20025;-85
2022/07/30 12:57:00;;;;;;;7.25;5.75;;;;;;;;;;5063257;28;20025;-82
2022/07/30 12:59:26;;;;;;;7.57;6.13;;;;;;;;;;5068292;28;20017;-82
2022/07/30 13:01:52;;;;;;;7.53;6.15;;;;;;;;;;5083841;28;20030;-81
2022/07/30 13:04:19;;;;;;;7.95;6.30;;;;;;;;;;5081846;28;20024;-82
2022/07/30 13:07:02;;;;;;;7.38;6.05;;;;;;;;;;5079079;28;20025;-83
2022/07/30 13:09:28;;;;;;;7.55;6.47;;;;;;;;;;5065580;28;20036;-82
2022/07/30 13:11:54;;;;;;;7.03;6.03;;;;;;;;;;5063815;28;20016;-82
2022/07/30 13:14:20;;;;;;;7.47;6.13;;;;;;;;;;5075756;28;20263;-83
2022/07/30 13:16:46;;;;;;;8.00;6.32;;;;;;;;;;5084165;28;20028;-83
2022/07/30 13:19:12;;;;;;;9.25;5.85;;;;;;;;;;5084056;28;20029;-83
2022/07/30 13:21:39;;;;;;;6.53;5.72;;;;;;;;;;5083304;28;20021;-83
2022/07/30 13:24:07;;;;;;;8.10;5.85;;;;;;;;;;5074082;28;20033;-82
2022/07/30 13:26:36;;;;;;;7.28;5.97;;;;;;;;;;5058646;28;20098;-82
2022/07/30 13:29:02;;;;;;;8.18;5.32;;;;;;;;;;5064190;28;20402;-83
2022/07/30 13:31:28;;;;;;;8.13;6.32;;;;;;;;;;5062425;28;20025;-82
2022/07/30 13:33:54;;;;;;;7.10;6.00;;;;;;;;;;5071617;28;20046;-84
2022/07/30 13:36:20;;;;;;;7.38;6.05;;;;;;;;;;5067067;28;20024;-82
2022/07/30 13:38:46;;;;;;;7.57;5.90;;;;;;;;;;5081997;28;20028;-83
2022/07/30 13:41:12;;;;;;;7.18;5.95;;;;;;;;;;5059137;28;20403;-83
2022/07/30 13:43:38;;;;;;;7.88;6.07;;;;;;;;;;5068926;28;20028;-82
2022/07/30 13:46:04;;;;;;;6.53;5.50;;;;;;;;;;5055038;28;20035;-82
2022/07/30 13:48:34;;;;;;;7.15;5.95;;;;;;;;;;5085139;28;20025;-83
2022/07/30 13:51:01;;;;;;;7.38;6.05;;;;;;;;;;5062139;28;20025;-82
2022/07/30 13:53:27;;;;;;;8.55;6.00;;;;;;;;;;5063725;28;20025;-83
2022/07/30 13:55:54;;;;;;;8.10;5.38;;;;;;;;;;5084146;28;20020;-83
2022/07/30 13:58:20;;;;;;;7.20;5.40;;;;;;;;;;5073668;28;20035;-82
2022/07/30 14:00:46;;;;;;;7.90;5.22;;;;;;;;;;5063283;28;20024;-81
2022/07/30 14:03:13;;;;;;;8.40;5.43;;;;;;;;;;5063671;28;20650;-83
2022/07/30 14:05:40;;;;;;;6.75;5.20;;;;;;;;;;5081470;28;20028;-83
2022/07/30 14:08:06;;;;;;;6.78;4.70;;;;;;;;;;5080133;28;20209;-83
2022/07/30 14:10:33;;;;;;;5.60;3.40;;;;;;;;;;5079365;28;20025;-83
2022/07/30 14:12:59;;;;;;;5.03;3.42;;;;;;;;;;5077678;28;20025;-83
2022/07/30 14:15:27;;;;;;;5.03;3.20;;;;;;;;;;5068178;28;20032;-83
2022/07/30 14:17:53;;;;;;;6.00;3.80;;;;;;;;;;5059411;28;20017;-82
2022/07/30 14:20:19;;;;;;;6.35;4.28;;;;;;;;;;5042379;28;20044;-83
2022/07/30 14:22:45;;;;;;;5.70;4.38;;;;;;;;;;5059217;28;20021;-83
2022/07/30 14:25:12;;;;;;;6.13;4.38;;;;;;;;;;5059312;28;20029;-82
2022/07/30 14:27:38;;;;;;;8.38;5.57;;;;;;;;;;5046565;28;20032;-82
2022/07/30 14:30:06;;;;;;;6.65;4.47;;;;;;;;;;5058498;28;20033;-82
2022/07/30 14:32:32;;;;;;;6.57;4.40;;;;;;;;;;5056227;28;20171;-81
2022/07/30 14:34:58;;;;;;;6.45;4.50;;;;;;;;;;5069381;28;20021;-81
2022/07/30 14:37:24;;;;;;;6.28;4.68;;;;;;;;;;5060726;28;20021;-81
2022/07/30 14:39:50;;;;;;;5.82;4.07;;;;;;;;;;5065975;28;20491;-82
2022/07/30 14:42:16;;;;;;;5.78;4.15;;;;;;;;;;5078062;28;20028;-83
2022/07/30 14:44:42;;;;;;;6.30;4.35;;;;;;;;;;5075314;28;20088;-82
2022/07/30 14:47:08;;;;;;;6.20;4.45;;;;;;;;;;5078009;28;20028;-83